createdAt,value
2019-05-16T00:02:01.375Z,10.80
2019-05-16T00:04:30.384Z,10.70
2019-05-16T00:07:00.835Z,10.70
2019-05-16T00:09:31.235Z,10.60
2019-05-16T00:12:01.638Z,10.50
2019-05-16T00:14:32.116Z,10.50
2019-05-16T00:17:02.482Z,10.50
2019-05-16T00:19:32.900Z,10.30
2019-05-16T00:22:03.289Z,10.30
2019-05-16T00:24:33.669Z,10.20
2019-05-16T00:27:04.064Z,10.20
2019-05-16T00:29:34.428Z,10.20
2019-05-16T00:32:04.857Z,10.20
2019-05-16T00:34:35.225Z,10.20
2019-05-16T00:37:05.628Z,10.20
2019-05-16T00:39:36.132Z,10.10
2019-05-16T00:42:08.592Z,10.20
2019-05-16T00:44:38.851Z,10.20
2019-05-16T00:47:09.235Z,10.10
2019-05-16T00:49:39.621Z,10.00
2019-05-16T00:52:10.108Z,10.00
2019-05-16T00:54:40.507Z,9.90
2019-05-16T00:57:11.514Z,9.90
2019-05-16T00:59:42.423Z,9.90
2019-05-16T01:02:12.784Z,9.90
2019-05-16T01:04:44.639Z,9.90
2019-05-16T01:07:15.256Z,9.90
2019-05-16T01:09:45.668Z,9.80
2019-05-16T01:12:17.879Z,9.80
2019-05-16T01:14:48.285Z,9.70
2019-05-16T01:17:18.647Z,9.70
2019-05-16T01:19:49.042Z,9.70
2019-05-16T01:22:20.903Z,9.70
2019-05-16T01:24:51.352Z,9.70
2019-05-16T01:27:21.717Z,9.70
2019-05-16T01:29:52.128Z,9.70
2019-05-16T01:32:23.395Z,9.80
2019-05-16T01:34:53.874Z,9.80
2019-05-16T01:37:24.241Z,9.80
2019-05-16T01:39:54.631Z,9.80
2019-05-16T01:42:25.160Z,9.80
2019-05-16T01:44:57.704Z,9.80
2019-05-16T01:47:28.784Z,9.90
2019-05-16T01:50:00.102Z,9.80
2019-05-16T01:52:30.613Z,9.80
2019-05-16T01:55:01.042Z,9.80
2019-05-16T01:57:31.458Z,9.80
2019-05-16T02:00:01.891Z,9.80
2019-05-16T02:02:32.372Z,9.80
2019-05-16T02:05:02.798Z,9.90
2019-05-16T02:07:33.201Z,10.00
2019-05-16T02:10:04.579Z,10.00
2019-05-16T02:12:34.972Z,10.00
2019-05-16T02:15:08.084Z,10.00
2019-05-16T02:17:38.729Z,10.00
2019-05-16T02:20:09.355Z,10.00
2019-05-16T02:22:39.836Z,10.10
2019-05-16T02:25:10.622Z,10.10
2019-05-16T02:27:41.245Z,10.10
2019-05-16T02:30:12.774Z,10.10
2019-05-16T02:32:43.344Z,10.10
2019-05-16T02:35:13.875Z,10.20
2019-05-16T02:37:44.266Z,10.20
2019-05-16T02:40:20.816Z,10.10
2019-05-16T02:42:51.511Z,10.20
2019-05-16T02:45:24.554Z,10.20
2019-05-16T02:47:54.264Z,10.20
2019-05-16T02:50:24.808Z,10.30
2019-05-16T02:52:55.300Z,10.30
2019-05-16T02:55:25.703Z,10.30
2019-05-16T02:57:56.162Z,10.30
2019-05-16T03:00:36.962Z,10.20
2019-05-16T03:03:07.451Z,10.20
2019-05-16T03:05:38.015Z,10.20
2019-05-16T03:08:11.754Z,10.30
2019-05-16T03:10:41.451Z,10.30
2019-05-16T03:13:12.007Z,10.30
2019-05-16T03:15:45.087Z,10.30
2019-05-16T03:18:17.566Z,10.30
2019-05-16T03:20:51.200Z,10.30
2019-05-16T03:23:21.959Z,10.40
2019-05-16T03:25:52.401Z,10.40
2019-05-16T03:28:22.876Z,10.40
2019-05-16T03:30:55.178Z,10.40
2019-05-16T03:33:32.675Z,10.40
2019-05-16T03:35:57.789Z,10.40
2019-05-16T03:38:30.601Z,10.40
2019-05-16T03:41:01.104Z,10.40
2019-05-16T03:43:31.636Z,10.40
2019-05-16T03:46:02.747Z,10.50
2019-05-16T03:48:33.290Z,10.50
2019-05-16T03:51:04.493Z,10.50
2019-05-16T03:53:34.931Z,10.60
2019-05-16T03:56:05.286Z,10.70
2019-05-16T03:58:35.685Z,10.70
2019-05-16T04:01:06.109Z,10.70
2019-05-16T04:03:40.958Z,10.70
2019-05-16T04:06:11.860Z,10.70
2019-05-16T04:08:42.170Z,10.70
2019-05-16T04:11:16.225Z,10.70
2019-05-16T04:13:46.201Z,10.70
2019-05-16T04:16:16.584Z,10.80
2019-05-16T04:18:46.985Z,10.70
2019-05-16T04:21:21.811Z,10.80
2019-05-16T04:23:50.986Z,10.80
2019-05-16T04:26:21.988Z,10.90
2019-05-16T04:28:52.448Z,10.90
2019-05-16T04:31:22.858Z,10.90
2019-05-16T04:33:53.337Z,10.90
2019-05-16T04:36:25.367Z,11.00
2019-05-16T04:38:55.735Z,11.00
2019-05-16T04:41:26.108Z,11.10
2019-05-16T04:44:00.551Z,11.00
2019-05-16T04:46:31.261Z,11.00
2019-05-16T04:49:01.687Z,11.10
2019-05-16T04:51:32.391Z,11.10
2019-05-16T04:54:07.136Z,11.10
2019-05-16T04:56:36.426Z,11.10
2019-05-16T04:59:06.901Z,11.10
2019-05-16T05:01:37.366Z,11.20
2019-05-16T05:04:11.768Z,11.30
2019-05-16T05:06:42.214Z,11.50
2019-05-16T05:09:12.644Z,11.50
2019-05-16T05:11:43.010Z,11.60
2019-05-16T05:14:13.428Z,11.70
2019-05-16T05:16:43.802Z,11.90
2019-05-16T05:19:14.204Z,11.70
2019-05-16T05:21:44.563Z,11.80
2019-05-16T05:24:14.960Z,11.80
2019-05-16T05:26:45.344Z,11.80
2019-05-16T05:29:15.769Z,11.90
2019-05-16T05:31:46.211Z,11.80
2019-05-16T05:34:16.643Z,11.80
2019-05-16T05:36:51.021Z,11.70
2019-05-16T05:39:20.924Z,11.70
2019-05-16T05:41:51.368Z,11.70
2019-05-16T05:44:21.770Z,11.60
2019-05-16T05:46:52.161Z,11.60
2019-05-16T05:49:25.516Z,11.60
2019-05-16T05:51:55.941Z,11.70
2019-05-16T05:54:27.149Z,11.70
2019-05-16T05:56:57.544Z,11.70
2019-05-16T05:59:30.424Z,11.60
2019-05-16T06:02:00.894Z,11.70
2019-05-16T06:04:33.022Z,11.70
2019-05-16T06:07:03.459Z,11.70
2019-05-16T06:09:35.319Z,11.80
2019-05-16T06:12:07.518Z,11.90
2019-05-16T06:14:37.839Z,12.00
2019-05-16T06:17:11.262Z,12.10
2019-05-16T06:19:40.348Z,12.20
2019-05-16T06:22:10.833Z,12.30
2019-05-16T06:24:41.204Z,12.50
2019-05-16T06:27:11.594Z,12.80
2019-05-16T06:29:42.408Z,13.00
2019-05-16T06:32:12.768Z,13.40
2019-05-16T06:34:43.152Z,13.60
2019-05-16T06:37:13.723Z,13.60
2019-05-16T06:39:45.375Z,13.50
2019-05-16T06:42:16.036Z,13.70
2019-05-16T06:44:46.440Z,13.80
2019-05-16T06:47:20.692Z,13.80
2019-05-16T06:49:50.863Z,14.00
2019-05-16T06:52:21.010Z,14.10
2019-05-16T06:54:53.847Z,14.10
2019-05-16T06:57:23.500Z,14.10
2019-05-16T06:59:53.930Z,14.00
2019-05-16T07:02:29.855Z,13.90
2019-05-16T07:04:56.442Z,13.90
2019-05-16T07:07:27.027Z,14.00
2019-05-16T07:10:03.566Z,14.10
2019-05-16T07:12:33.389Z,14.00
2019-05-16T07:15:02.312Z,14.00
2019-05-16T07:17:32.805Z,13.90
2019-05-16T07:20:03.227Z,14.00
2019-05-16T07:22:33.671Z,14.00
2019-05-16T07:25:06.545Z,13.80
2019-05-16T07:27:37.045Z,13.90
2019-05-16T07:30:10.572Z,13.90
2019-05-16T07:32:40.760Z,13.90
2019-05-16T07:35:11.551Z,14.00
2019-05-16T07:37:41.934Z,14.20
2019-05-16T07:40:20.089Z,14.20
2019-05-16T07:42:44.640Z,14.10
2019-05-16T07:45:15.182Z,14.10
2019-05-16T07:47:45.579Z,14.20
2019-05-16T07:50:19.972Z,14.20
2019-05-16T07:52:51.133Z,14.20
2019-05-16T07:55:21.817Z,14.20
2019-05-16T07:57:52.274Z,14.20
2019-05-16T08:00:45.910Z,14.30
2019-05-16T08:02:54.726Z,14.30
2019-05-16T08:05:25.101Z,14.20
2019-05-16T08:07:55.670Z,14.10
2019-05-16T08:10:38.059Z,14.00
2019-05-16T08:13:03.404Z,14.00
2019-05-16T08:15:30.499Z,14.00
2019-05-16T08:18:03.251Z,13.90
2019-05-16T08:20:33.096Z,13.90
2019-05-16T08:23:03.505Z,13.90
2019-05-16T08:25:33.888Z,13.70
2019-05-16T08:28:04.287Z,13.70
2019-05-16T08:30:36.204Z,13.70
2019-05-16T08:33:13.554Z,13.80
2019-05-16T08:35:41.813Z,13.80
2019-05-16T08:41:04.394Z,13.80
2019-05-16T08:43:21.356Z,13.80
2019-05-16T08:45:51.613Z,13.90
2019-05-16T08:48:23.465Z,13.90
2019-05-16T08:50:54.969Z,13.70
2019-05-16T08:53:25.553Z,13.60
2019-05-16T08:55:55.985Z,13.60
2019-05-16T08:58:26.422Z,13.60
2019-05-16T09:00:56.829Z,13.60
2019-05-16T09:03:27.360Z,13.50
2019-05-16T09:06:02.999Z,13.60
2019-05-16T09:08:31.308Z,13.60
2019-05-16T09:10:34.703Z,13.90
2019-05-16T09:11:15.864Z,13.70
2019-05-16T09:13:36.847Z,13.70
2019-05-16T09:16:07.786Z,13.60
2019-05-16T09:18:41.287Z,13.60
2019-05-16T09:21:10.205Z,13.60
2019-05-16T09:23:40.683Z,13.60
2019-05-16T09:26:15.417Z,13.70
2019-05-16T09:28:47.855Z,13.70
2019-05-16T09:31:17.912Z,13.70
2019-05-16T09:33:48.688Z,13.80
2019-05-16T09:36:19.070Z,13.80
2019-05-16T09:38:49.610Z,13.90
2019-05-16T09:41:20.143Z,13.90
2019-05-16T09:43:50.588Z,14.00
2019-05-16T09:46:21.040Z,14.10
2019-05-16T09:49:11.639Z,14.10
2019-05-16T09:51:23.508Z,14.00
2019-05-16T09:53:56.770Z,14.00
2019-05-16T09:56:27.249Z,14.00
2019-05-16T09:58:57.707Z,14.10
2019-05-16T10:01:28.198Z,14.20
2019-05-16T10:03:58.564Z,14.20
2019-05-16T10:06:30.420Z,14.30
2019-05-16T10:09:00.912Z,14.30
2019-05-16T10:11:32.765Z,14.40
2019-05-16T10:14:07.235Z,14.40
2019-05-16T10:16:37.202Z,14.40
2019-05-16T10:19:07.671Z,14.40
2019-05-16T10:21:38.219Z,14.40
2019-05-16T10:24:08.998Z,14.40
2019-05-16T10:26:39.701Z,14.50
2019-05-16T10:29:11.690Z,14.50
2019-05-16T10:31:49.428Z,14.50
2019-05-16T10:34:17.386Z,14.50
2019-05-16T10:36:48.146Z,14.50
2019-05-16T10:39:18.804Z,14.50
2019-05-16T10:41:49.470Z,14.60
2019-05-16T10:44:20.171Z,14.80
2019-05-16T10:46:50.826Z,15.20
2019-05-16T10:49:36.160Z,15.70
2019-05-16T10:51:53.227Z,16.10
2019-05-16T10:54:23.925Z,16.70
2019-05-16T10:56:57.449Z,17.20
2019-05-16T11:02:01.191Z,18.00
2019-05-16T11:04:52.868Z,18.70
2019-05-16T11:07:08.258Z,19.40
2019-05-16T11:09:39.455Z,19.90
2019-05-16T11:12:10.199Z,20.30
2019-05-16T11:14:40.792Z,20.50
2019-05-16T11:17:12.946Z,20.50
2019-05-16T11:19:46.421Z,20.40
2019-05-16T11:22:18.634Z,20.10
2019-05-16T11:24:50.225Z,19.70
2019-05-16T11:27:22.384Z,19.30
2019-05-16T11:29:53.065Z,19.00
2019-05-16T11:32:26.978Z,18.70
2019-05-16T11:34:57.599Z,18.60
2019-05-16T11:37:28.475Z,18.10
2019-05-16T11:39:59.122Z,18.00
2019-05-16T11:42:33.101Z,17.90
2019-05-16T11:45:09.486Z,17.90
2019-05-16T11:47:39.313Z,17.90
2019-05-16T11:50:12.212Z,17.90
2019-05-16T11:52:42.754Z,18.00
2019-05-16T11:55:13.383Z,18.10
2019-05-16T11:57:47.612Z,18.10
2019-05-16T12:00:18.366Z,18.00
2019-05-16T12:02:50.518Z,17.90
2019-05-16T12:05:21.059Z,17.70
2019-05-16T12:07:51.490Z,17.60
2019-05-16T12:10:22.793Z,17.50
2019-05-16T12:12:53.352Z,17.40
2019-05-16T12:15:23.733Z,17.30
2019-05-16T12:18:03.872Z,17.40
2019-05-16T12:20:27.843Z,17.40
2019-05-16T12:22:58.295Z,17.40
2019-05-16T12:25:30.134Z,17.40
2019-05-16T12:28:03.707Z,17.40
2019-05-16T12:30:34.337Z,17.40
2019-05-16T12:33:07.121Z,17.50
2019-05-16T12:35:40.076Z,17.60
2019-05-16T12:38:11.704Z,17.80
2019-05-16T12:40:42.435Z,18.20
2019-05-16T12:43:12.995Z,18.60
2019-05-16T12:45:43.448Z,18.90
2019-05-16T12:48:19.346Z,19.10
2019-05-16T12:50:48.046Z,19.30
2019-05-16T12:53:18.064Z,19.50
2019-05-16T12:55:48.521Z,19.70
2019-05-16T12:58:25.044Z,19.70
2019-05-16T13:00:57.419Z,19.70
2019-05-16T13:03:23.392Z,19.50
2019-05-16T13:05:53.900Z,19.40
2019-05-16T13:08:26.635Z,19.10
2019-05-16T13:10:57.805Z,18.80
2019-05-16T13:13:28.440Z,18.50
2019-05-16T13:15:58.998Z,18.20
2019-05-16T13:18:29.549Z,18.00
2019-05-16T13:21:00.098Z,17.80
2019-05-16T13:23:30.997Z,17.60
2019-05-16T13:26:01.461Z,17.40
2019-05-16T13:28:33.537Z,17.30
2019-05-16T13:31:03.906Z,17.30
2019-05-16T13:33:36.699Z,17.20
2019-05-16T13:36:07.524Z,17.30
2019-05-16T13:38:38.217Z,17.30
2019-05-16T13:41:08.689Z,17.40
2019-05-16T13:43:39.110Z,17.50
2019-05-16T13:46:09.550Z,17.60
2019-05-16T13:48:40.235Z,17.70
2019-05-16T13:51:15.527Z,17.70
2019-05-16T13:53:43.701Z,17.60
2019-05-16T13:56:17.352Z,17.50
2019-05-16T13:58:48.163Z,17.20
2019-05-16T14:01:21.797Z,17.00
2019-05-16T14:03:50.857Z,17.00
2019-05-16T14:06:21.329Z,17.00
2019-05-16T14:08:52.719Z,17.20
2019-05-16T14:11:23.402Z,17.60
2019-05-16T14:13:56.237Z,18.10
2019-05-16T14:16:27.845Z,18.60
2019-05-16T14:18:58.438Z,19.10
2019-05-16T14:21:29.088Z,19.40
2019-05-16T14:23:59.386Z,19.70
2019-05-16T14:26:29.839Z,19.90
2019-05-16T14:29:00.502Z,19.90
2019-05-16T14:31:30.926Z,19.90
2019-05-16T14:34:01.573Z,19.80
2019-05-16T14:36:32.168Z,19.60
2019-05-16T14:39:03.307Z,19.60
2019-05-16T14:41:33.843Z,19.60
2019-05-16T14:44:04.562Z,19.70
2019-05-16T14:46:37.798Z,19.60
2019-05-16T14:49:07.653Z,19.60
2019-05-16T14:51:38.837Z,19.50
2019-05-16T14:54:09.436Z,19.30
2019-05-16T14:56:40.784Z,19.20
2019-05-16T14:59:11.310Z,19.20
2019-05-16T15:01:41.823Z,19.00
2019-05-16T15:04:15.315Z,18.90
2019-05-16T15:06:48.082Z,18.90
2019-05-16T15:09:18.851Z,18.60
2019-05-16T15:11:49.481Z,18.40
2019-05-16T15:14:20.128Z,18.20
2019-05-16T15:16:51.999Z,18.10
2019-05-16T15:19:22.726Z,18.00
2019-05-16T15:21:53.155Z,17.80
2019-05-16T15:24:23.775Z,17.70
2019-05-16T15:27:00.899Z,17.60
2019-05-16T15:29:27.043Z,17.50
2019-05-16T15:31:57.566Z,17.40
2019-05-16T15:34:30.295Z,17.40
2019-05-16T15:37:00.233Z,17.40
2019-05-16T15:39:30.679Z,17.30
2019-05-16T15:42:01.094Z,17.20
2019-05-16T15:44:31.514Z,17.20
2019-05-16T15:47:01.969Z,17.30
2019-05-16T15:49:32.384Z,17.40
2019-05-16T15:52:02.927Z,17.40
2019-05-16T15:54:33.481Z,17.40
2019-05-16T15:57:03.921Z,17.40
2019-05-16T15:59:34.332Z,17.50
2019-05-16T16:02:07.107Z,17.50
2019-05-16T16:04:37.441Z,17.50
2019-05-16T16:07:08.101Z,17.40
2019-05-16T16:09:38.518Z,17.20
2019-05-16T16:12:10.976Z,17.00
2019-05-16T16:14:41.471Z,17.00
2019-05-16T16:17:11.863Z,16.90
2019-05-16T16:19:43.337Z,16.80
2019-05-16T16:22:13.722Z,16.70
2019-05-16T16:24:44.139Z,16.60
2019-05-16T16:27:16.884Z,16.50
2019-05-16T16:29:48.082Z,16.40
2019-05-16T16:32:18.638Z,16.30
2019-05-16T16:34:49.213Z,16.30
2019-05-16T16:37:19.636Z,16.30
2019-05-16T16:39:50.124Z,16.20
2019-05-16T16:42:20.603Z,16.20
2019-05-16T16:44:51.083Z,16.00
2019-05-16T16:47:22.930Z,15.90
2019-05-16T16:49:53.438Z,15.80
2019-05-16T16:52:23.884Z,15.80
2019-05-16T16:54:56.686Z,15.80
2019-05-16T16:57:27.063Z,15.80
2019-05-16T16:59:57.635Z,15.80
2019-05-16T17:02:28.055Z,15.80
2019-05-16T17:05:01.526Z,15.80
2019-05-16T17:07:30.715Z,15.80
2019-05-16T17:10:01.149Z,15.70
2019-05-16T17:12:31.575Z,15.60
2019-05-16T17:15:02.029Z,15.60
2019-05-16T17:17:32.452Z,15.60
2019-05-16T17:20:02.873Z,15.70
2019-05-16T17:22:33.326Z,15.60
2019-05-16T17:25:07.118Z,15.60
2019-05-16T17:27:37.783Z,15.60
2019-05-16T17:30:17.144Z,15.60
2019-05-16T17:32:49.165Z,15.50
2019-05-16T17:35:26.730Z,15.50
2019-05-16T17:37:57.308Z,15.30
2019-05-16T17:40:27.826Z,15.40
2019-05-16T17:42:58.197Z,15.40
2019-05-16T17:45:28.944Z,15.30
2019-05-16T17:47:59.422Z,15.30
2019-05-16T17:50:29.799Z,15.20
2019-05-16T17:53:00.233Z,15.30
2019-05-16T17:55:30.615Z,15.20
2019-05-16T17:58:01.027Z,15.20
2019-05-16T18:00:31.469Z,15.20
2019-05-16T18:03:02.671Z,15.30
2019-05-16T18:05:33.137Z,15.30
2019-05-16T18:08:03.523Z,15.30
2019-05-16T18:10:36.318Z,15.30
2019-05-16T18:13:07.998Z,15.30
2019-05-16T18:15:38.503Z,15.30
2019-05-16T18:18:08.900Z,15.30
2019-05-16T18:20:39.466Z,15.30
2019-05-16T18:23:09.868Z,15.30
2019-05-16T18:25:40.232Z,15.30
2019-05-16T18:28:11.467Z,15.20
2019-05-16T18:30:41.867Z,15.20
2019-05-16T18:33:12.345Z,15.20
2019-05-16T18:35:42.728Z,15.20
2019-05-16T18:38:14.649Z,15.20
2019-05-16T18:40:47.247Z,15.10
2019-05-16T18:43:17.144Z,15.10
2019-05-16T18:45:47.639Z,15.00
2019-05-16T18:48:18.050Z,15.10
2019-05-16T18:50:48.534Z,15.10
2019-05-16T18:53:18.951Z,15.10
2019-05-16T18:55:50.935Z,15.00
2019-05-16T18:58:22.805Z,15.00
2019-05-16T19:00:53.314Z,15.00
2019-05-16T19:03:23.701Z,15.00
2019-05-16T19:05:54.151Z,15.00
2019-05-16T19:08:26.880Z,15.00
2019-05-16T19:11:00.039Z,15.00
2019-05-16T19:13:29.677Z,14.90
2019-05-16T19:16:00.129Z,14.90
2019-05-16T19:18:30.520Z,14.90
2019-05-16T19:21:00.982Z,15.00
2019-05-16T19:23:31.370Z,15.00
2019-05-16T19:26:01.794Z,14.90
2019-05-16T19:28:32.235Z,15.00
2019-05-16T19:31:02.649Z,15.00
2019-05-16T19:33:34.552Z,15.00
2019-05-16T19:36:07.280Z,15.00
2019-05-16T19:38:37.910Z,15.00
2019-05-16T19:41:08.367Z,15.00
2019-05-16T19:43:38.800Z,15.00
2019-05-16T19:46:09.191Z,15.00
2019-05-16T19:48:39.680Z,14.90
2019-05-16T19:51:12.531Z,14.90
2019-05-16T19:53:42.928Z,14.90
2019-05-16T19:56:14.764Z,14.90
2019-05-16T19:58:46.761Z,14.90
2019-05-16T20:01:17.252Z,14.80
2019-05-16T20:03:47.711Z,14.70
2019-05-16T20:06:18.178Z,14.70
2019-05-16T20:08:48.614Z,14.70
2019-05-16T20:11:19.008Z,14.60
2019-05-16T20:13:49.456Z,14.50
2019-05-16T20:16:19.917Z,14.50
2019-05-16T20:18:52.831Z,14.40
2019-05-16T20:21:27.357Z,14.40
2019-05-16T20:23:56.909Z,14.30
2019-05-16T20:26:27.427Z,14.30
2019-05-16T20:28:59.491Z,14.40
2019-05-16T20:31:30.072Z,14.40
2019-05-16T20:34:00.538Z,14.40
2019-05-16T20:36:32.474Z,14.40
2019-05-16T20:39:03.121Z,14.40
2019-05-16T20:41:36.747Z,14.30
2019-05-16T20:44:07.413Z,14.30
2019-05-16T20:46:37.826Z,14.30
2019-05-16T20:49:08.198Z,14.40
2019-05-16T20:51:39.442Z,14.30
2019-05-16T20:54:09.814Z,14.30
2019-05-16T20:56:40.238Z,14.30
2019-05-16T20:59:10.622Z,14.30
2019-05-16T21:01:41.206Z,14.30
2019-05-16T21:04:11.584Z,14.30
2019-05-16T21:06:56.798Z,14.30
2019-05-16T21:09:14.111Z,14.30
2019-05-16T21:11:46.822Z,14.20
2019-05-16T21:14:16.599Z,14.10
2019-05-16T21:16:49.486Z,14.00
2019-05-16T21:19:19.101Z,14.10
2019-05-16T21:21:49.577Z,14.10
2019-05-16T21:24:22.165Z,14.10
2019-05-16T21:26:52.926Z,14.00
2019-05-16T21:29:23.301Z,14.00
2019-05-16T21:31:53.708Z,13.90
2019-05-16T21:34:27.226Z,13.90
2019-05-16T21:37:11.016Z,13.80
2019-05-16T21:39:29.966Z,13.80
2019-05-16T21:42:00.328Z,13.80
2019-05-16T21:44:32.244Z,13.80
2019-05-16T21:47:02.684Z,13.80
2019-05-16T21:49:36.606Z,13.80
2019-05-16T21:52:07.461Z,13.80
2019-05-16T21:54:37.861Z,13.80
2019-05-16T21:57:08.251Z,13.80
2019-05-16T21:59:38.678Z,13.80
2019-05-16T22:02:09.058Z,13.70
2019-05-16T22:04:39.459Z,13.70
2019-05-16T22:07:10.029Z,13.60
2019-05-16T22:09:40.438Z,13.40
2019-05-16T22:12:10.830Z,13.40
2019-05-16T22:14:46.639Z,13.40
2019-05-16T22:17:16.948Z,13.30
2019-05-16T22:19:47.642Z,13.30
2019-05-16T22:22:18.084Z,13.20
2019-05-16T22:24:49.317Z,13.20
2019-05-16T22:27:19.942Z,13.20
2019-05-16T22:29:50.510Z,13.30
2019-05-16T22:32:21.087Z,13.30
2019-05-16T22:34:51.551Z,13.40
2019-05-16T22:37:21.955Z,13.30
2019-05-16T22:39:52.370Z,13.30
2019-05-16T22:42:22.852Z,13.20
2019-05-16T22:44:53.216Z,13.20
2019-05-16T22:47:23.636Z,13.10
2019-05-16T22:49:56.590Z,13.10
2019-05-16T22:52:26.573Z,13.00
2019-05-16T22:54:57.074Z,12.90
2019-05-16T22:57:27.502Z,12.90
2019-05-16T22:59:57.872Z,12.80
2019-05-16T23:02:29.873Z,12.70
2019-05-16T23:05:00.278Z,12.70
2019-05-16T23:07:30.671Z,12.60
2019-05-16T23:10:02.577Z,12.60
2019-05-16T23:12:32.953Z,12.50
2019-05-16T23:15:03.769Z,12.40
2019-05-16T23:17:34.150Z,12.40
2019-05-16T23:20:06.337Z,12.30
2019-05-16T23:22:36.980Z,12.30
2019-05-16T23:25:07.375Z,12.20
2019-05-16T23:27:37.847Z,12.10
2019-05-16T23:30:09.521Z,12.10
2019-05-16T23:32:39.956Z,12.00
2019-05-16T23:35:10.535Z,11.90
2019-05-16T23:37:42.412Z,11.90
2019-05-16T23:40:14.309Z,11.80
2019-05-16T23:42:46.461Z,11.80
2019-05-16T23:45:17.359Z,11.70
2019-05-16T23:47:47.841Z,11.70
2019-05-16T23:50:18.245Z,11.60
2019-05-16T23:52:50.184Z,11.60
2019-05-16T23:55:20.641Z,11.60
2019-05-16T23:57:51.045Z,11.50
